Quick Links (Output Below):   Max & Min Temps   /   Climate Reports   /   Zone Forecasts
River Forecasts   /   Forestry Forecasts   /   Aviation Forecasts   /   Radars   /   Features

Terminal Aerodrome Forecast (Fayetteville)

Pick a Site:
Arkadelphia | El Dorado | Fayetteville | Fort Smith | Harrison | Highfill | Hot Springs | Jonesboro
Little Rock | Monticello | Mountain Home | Pine Bluff | Texarkana
 Forecast 

KFYV 311737Z 3118/0118 00000KT P6SM SCT015 BKN040 BKN250
      TEMPO 3118/3120 BKN015
     FM010000 VRB05KT P6SM VCTS BKN050CB
      TEMPO 0100/0104 4SM -TSRA BKN025CB
     FM010900 00000KT 1SM BR OVC005
      TEMPO 0110/0114 1/2SM FG OVC002
     FM011400 VRB03KT P6SM BKN040 BKN100=


 Latest METARs (Observations) 
How to Decode METARs
17Z KFYV 311653Z 31005KT 10SM FEW020 23/20 A2998 RMK AO2 SLP142
         T02330200
         
16Z KFYV 311553Z VRB04KT 10SM CLR 22/19 A2998 RMK AO2 SLP141
         T02220189
         
15Z KFYV 311453Z 18007KT 10SM CLR 22/18 A2998 RMK AO2 SLP142 T02170178
         53013
         
14Z KFYV 311353Z 13004KT 10SM CLR 21/19 A2997 RMK AO2 SLP138
         T02060189
         
13Z KFYV 311253Z 00000KT 10SM CLR 17/17 A2996 RMK AO2 SLP136
         T01670167
         
12Z KFYV 311153Z 00000KT 4SM BR BKN002 15/15 A2994 RMK AO2 SLP132
         70069 T01500150 10172 20144 58004
         
11Z KFYV 311053Z 00000KT 1/4SM FG VV001 15/15 A2995 RMK AO2 SLP134
         T01500150
         
10Z KFYV 310953Z AUTO 00000KT 3SM BR FEW002 16/16 A2996 RMK AO2 SLP135
         T01560156
         
09Z KFYV 310853Z AUTO 00000KT 1 3/4SM BR FEW002 SCT055 15/15 A2995 RMK
         AO2 SLP134 T01500150 55004
         
08Z KFYV 310753Z AUTO 00000KT 1/4SM FG VV002 16/16 A2994 RMK AO2
         SLP128 T01560156
         
***** Today's Observations (Above) *****


Back to Main Page
http://www.srh.noaa.gov/lzk/qfcst.php

USA.gov is the U.S. government's official web portal to all federal, state and local government web resources and services.